Time;durP1;ratioP1;P1;durP2;ratioP2;P2;SDS_P1;SDS_P2;PMS_P1;PMS_P2;Temp;Humidity;BMP_temperature;BMP_pressure;BME280_temperature;BME280_humidity;BME280_pressure;Samples;Min_cycle;Max_cycle;Signal;HPM_P1;HPM_P2
2023/05/22 00:02:15;;;;;;;32.72;15.88;;;;;;;;;;6214697;23;20011;-79
2023/05/22 00:04:40;;;;;;;35.53;16.02;;;;;;;;;;6215136;23;20329;-77
2023/05/22 00:07:06;;;;;;;37.65;16.55;;;;;;;;;;6215075;23;19997;-77
2023/05/22 00:09:31;;;;;;;32.35;16.60;;;;;;;;;;6213265;23;20006;-77
2023/05/22 00:11:56;;;;;;;32.35;15.82;;;;;;;;;;6213379;23;20000;-77
2023/05/22 00:14:22;;;;;;;35.80;15.32;;;;;;;;;;6188436;23;20015;-79
2023/05/22 00:16:47;;;;;;;30.83;16.02;;;;;;;;;;6214844;23;20004;-79
2023/05/22 00:19:15;;;;;;;31.75;15.38;;;;;;;;;;6213577;23;20007;-79
2023/05/22 00:21:45;;;;;;;27.98;15.88;;;;;;;;;;6213330;23;20047;-79
2023/05/22 00:24:11;;;;;;;32.90;14.60;;;;;;;;;;6213291;23;20004;-79
2023/05/22 00:26:36;;;;;;;34.08;15.68;;;;;;;;;;6188386;23;20011;-79
2023/05/22 00:29:02;;;;;;;35.17;16.33;;;;;;;;;;6213212;23;20006;-79
2023/05/22 00:31:27;;;;;;;36.30;16.38;;;;;;;;;;6214419;23;20439;-80
2023/05/22 00:33:53;;;;;;;35.95;16.83;;;;;;;;;;6213224;23;20009;-77
2023/05/22 00:36:18;;;;;;;38.58;15.80;;;;;;;;;;6214550;23;20004;-79
2023/05/22 00:38:44;;;;;;;28.40;14.43;;;;;;;;;;6215138;23;20090;-78
2023/05/22 00:41:09;;;;;;;30.83;15.30;;;;;;;;;;6214510;23;20672;-78
2023/05/22 00:43:35;;;;;;;28.50;14.93;;;;;;;;;;6214557;23;20084;-78
2023/05/22 00:46:00;;;;;;;31.08;15.55;;;;;;;;;;6187795;23;20005;-78
2023/05/22 00:48:26;;;;;;;30.67;15.07;;;;;;;;;;6163070;23;20008;-79
2023/05/22 00:50:55;;;;;;;44.65;15.35;;;;;;;;;;6213028;23;20008;-78
2023/05/22 00:53:21;;;;;;;33.38;15.23;;;;;;;;;;6188540;23;20007;-78
2023/05/22 00:55:46;;;;;;;27.60;14.88;;;;;;;;;;6188335;23;20028;-78
2023/05/22 00:58:14;;;;;;;28.90;15.20;;;;;;;;;;6188103;23;20007;-77
2023/05/22 01:00:41;;;;;;;38.50;15.27;;;;;;;;;;6188097;23;20490;-77
2023/05/22 01:03:06;;;;;;;28.35;14.65;;;;;;;;;;6214174;23;20027;-77
2023/05/22 01:05:33;;;;;;;30.42;15.52;;;;;;;;;;6212896;23;20087;-78
2023/05/22 01:07:58;;;;;;;29.88;15.38;;;;;;;;;;6213044;23;20008;-78
2023/05/22 01:10:24;;;;;;;36.90;15.48;;;;;;;;;;6188110;23;20093;-78
2023/05/22 01:13:11;;;;;;;31.35;15.93;;;;;;;;;;6212641;23;20008;-78
2023/05/22 01:15:48;;;;;;;29.40;14.98;;;;;;;;;;6214150;23;20353;-79
2023/05/22 01:18:28;;;;;;;33.58;15.60;;;;;;;;;;6212759;23;20004;-78
2023/05/22 01:20:57;;;;;;;28.85;15.93;;;;;;;;;;6188900;23;20012;-78
2023/05/22 01:23:35;;;;;;;32.30;16.27;;;;;;;;;;6163466;23;20003;-78
2023/05/22 01:26:37;;;;;;;40.33;17.88;;;;;;;;;;6212576;23;20002;-78
2023/05/22 01:29:37;;;;;;;34.75;16.48;;;;;;;;;;6213709;23;20098;-78
2023/05/22 01:32:02;;;;;;;38.63;17.58;;;;;;;;;;6212256;23;20054;-78
2023/05/22 01:34:28;;;;;;;35.83;17.88;;;;;;;;;;6187362;23;20087;-78
2023/05/22 01:36:53;;;;;;;39.25;17.60;;;;;;;;;;6162969;23;20011;-78
2023/05/22 01:39:19;;;;;;;35.78;17.88;;;;;;;;;;6212768;23;20008;-78
2023/05/22 01:41:44;;;;;;;39.35;19.05;;;;;;;;;;6187647;23;19997;-78
2023/05/22 01:44:10;;;;;;;42.65;18.17;;;;;;;;;;6187832;23;20004;-78
2023/05/22 01:46:35;;;;;;;43.63;18.95;;;;;;;;;;6187663;23;20443;-78
2023/05/22 01:49:01;;;;;;;41.33;19.02;;;;;;;;;;6187668;23;20015;-78
2023/05/22 01:51:36;;;;;;;46.58;18.17;;;;;;;;;;6212436;23;20001;-78
2023/05/22 01:54:27;;;;;;;39.72;18.55;;;;;;;;;;6187515;23;20062;-78
2023/05/22 01:56:54;;;;;;;;;;;;;;;;;;6214046;23;20435;-77
2023/05/22 01:59:24;;;;;;;37.22;16.88;;;;;;;;;;6212100;23;20311;-77
2023/05/22 02:01:50;;;;;;;35.08;16.48;;;;;;;;;;6213775;23;20371;-78
2023/05/22 02:04:15;;;;;;;41.42;17.67;;;;;;;;;;6212284;23;20446;-78
2023/05/22 02:06:41;;;;;;;40.72;17.85;;;;;;;;;;6212192;23;20005;-78
2023/05/22 02:09:07;;;;;;;38.85;18.40;;;;;;;;;;6212344;23;20340;-79
2023/05/22 02:11:32;;;;;;;41.85;17.60;;;;;;;;;;6187218;23;20012;-79
2023/05/22 02:13:58;;;;;;;36.20;17.00;;;;;;;;;;6186674;23;20083;-78
2023/05/22 02:16:23;;;;;;;31.08;17.40;;;;;;;;;;6162295;23;20367;-79
2023/05/22 02:18:50;;;;;;;34.65;17.48;;;;;;;;;;6212137;23;20339;-77
2023/05/22 02:21:15;;;;;;;46.00;17.80;;;;;;;;;;6187570;23;20054;-79
2023/05/22 02:23:40;;;;;;;42.25;17.85;;;;;;;;;;6187380;23;20417;-78
2023/05/22 02:26:06;;;;;;;36.92;17.90;;;;;;;;;;6187581;23;20429;-78
2023/05/22 02:28:31;;;;;;;38.40;17.90;;;;;;;;;;6213222;23;20486;-79
2023/05/22 02:30:57;;;;;;;48.00;17.95;;;;;;;;;;6212029;23;20031;-78
2023/05/22 02:33:22;;;;;;;37.13;17.25;;;;;;;;;;6212163;23;20087;-78
2023/05/22 02:35:48;;;;;;;37.42;18.20;;;;;;;;;;6186920;23;20001;-78
2023/05/22 02:38:13;;;;;;;34.92;17.02;;;;;;;;;;6187119;23;20054;-78
2023/05/22 02:40:39;;;;;;;34.75;16.50;;;;;;;;;;6212211;23;20059;-78
2023/05/22 02:43:04;;;;;;;41.42;16.73;;;;;;;;;;6161812;23;20031;-78
2023/05/22 02:45:30;;;;;;;37.28;17.98;;;;;;;;;;6186865;23;19996;-78
2023/05/22 02:47:55;;;;;;;33.75;17.55;;;;;;;;;;6213589;23;20001;-79
2023/05/22 02:50:21;;;;;;;35.58;17.85;;;;;;;;;;6187016;23;20000;-78
2023/05/22 02:52:48;;;;;;;36.42;17.02;;;;;;;;;;6187104;23;20020;-78
2023/05/22 02:55:13;;;;;;;40.97;18.08;;;;;;;;;;6212164;23;20332;-77
2023/05/22 02:57:39;;;;;;;37.10;18.05;;;;;;;;;;6211420;23;20087;-77
2023/05/22 03:00:10;;;;;;;45.65;17.70;;;;;;;;;;6213540;23;20011;-78
2023/05/22 03:02:36;;;;;;;39.00;17.70;;;;;;;;;;6188214;23;20008;-78
2023/05/22 03:05:07;;;;;;;35.72;17.67;;;;;;;;;;6212781;23;20059;-78
2023/05/22 03:07:33;;;;;;;38.63;19.02;;;;;;;;;;6213319;23;20071;-78
2023/05/22 03:09:59;;;;;;;41.28;20.50;;;;;;;;;;6188241;23;20005;-79
2023/05/22 03:12:24;;;;;;;44.00;20.40;;;;;;;;;;6214130;23;20000;-79
2023/05/22 03:14:50;;;;;;;45.28;21.20;;;;;;;;;;6215278;23;20035;-79
2023/05/22 03:17:15;;;;;;;46.80;21.15;;;;;;;;;;6189057;23;20313;-78
2023/05/22 03:19:41;;;;;;;42.38;21.45;;;;;;;;;;6214049;23;20005;-79
2023/05/22 03:22:06;;;;;;;59.75;21.65;;;;;;;;;;6213868;23;20036;-79
2023/05/22 03:24:31;;;;;;;44.85;21.48;;;;;;;;;;6213591;23;20447;-79
2023/05/22 03:26:58;;;;;;;42.90;20.63;;;;;;;;;;6188936;23;20059;-79
2023/05/22 03:29:23;;;;;;;52.38;21.75;;;;;;;;;;6213689;23;20317;-79
2023/05/22 03:31:49;;;;;;;46.75;21.58;;;;;;;;;;6188748;23;20031;-79
2023/05/22 03:34:15;;;;;;;55.67;21.60;;;;;;;;;;6215319;23;20418;-79
2023/05/22 03:36:40;;;;;;;42.60;20.67;;;;;;;;;;6189136;23;20008;-79
2023/05/22 03:39:06;;;;;;;47.10;21.90;;;;;;;;;;6214989;23;20367;-80
2023/05/22 03:41:31;;;;;;;46.55;21.60;;;;;;;;;;6213537;23;20004;-79
2023/05/22 03:43:57;;;;;;;44.83;22.15;;;;;;;;;;6213900;23;20070;-80
2023/05/22 03:46:22;;;;;;;46.83;22.23;;;;;;;;;;6213405;23;20005;-79
2023/05/22 03:48:48;;;;;;;48.22;24.10;;;;;;;;;;6213550;23;20005;-80
2023/05/22 03:51:13;;;;;;;55.38;26.00;;;;;;;;;;6215570;23;20007;-79
2023/05/22 03:53:39;;;;;;;65.18;28.33;;;;;;;;;;6214526;23;20012;-79
2023/05/22 03:56:04;;;;;;;51.88;25.17;;;;;;;;;;6215130;23;20007;-79
2023/05/22 03:58:30;;;;;;;50.78;23.75;;;;;;;;;;6213688;23;20005;-79
2023/05/22 04:00:59;;;;;;;52.28;25.02;;;;;;;;;;6189341;23;20003;-80
2023/05/22 04:03:25;;;;;;;60.95;26.33;;;;;;;;;;6189556;23;20015;-79
2023/05/22 04:05:51;;;;;;;58.25;23.40;;;;;;;;;;6164094;23;20091;-79
2023/05/22 04:08:16;;;;;;;46.75;23.10;;;;;;;;;;6214722;23;20000;-80
2023/05/22 04:10:45;;;;;;;47.05;22.27;;;;;;;;;;6213460;23;20033;-79
2023/05/22 04:13:11;;;;;;;54.13;22.40;;;;;;;;;;6213283;23;20042;-79
2023/05/22 04:15:37;;;;;;;57.72;24.70;;;;;;;;;;6188472;23;20015;-80
2023/05/22 04:18:02;;;;;;;51.38;22.55;;;;;;;;;;6215317;23;19996;-80
2023/05/22 04:20:27;;;;;;;54.95;22.23;;;;;;;;;;6213109;23;20039;-79
2023/05/22 04:22:53;;;;;;;51.80;23.17;;;;;;;;;;6212638;23;20108;-79
2023/05/22 04:25:19;;;;;;;45.88;21.85;;;;;;;;;;6187990;23;20062;-80
2023/05/22 04:27:46;;;;;;;46.75;20.77;;;;;;;;;;6213072;23;20014;-79
2023/05/22 04:30:13;;;;;;;43.78;19.10;;;;;;;;;;6188723;23;20011;-80
2023/05/22 04:32:39;;;;;;;36.05;18.98;;;;;;;;;;6214967;23;20001;-79
2023/05/22 04:35:05;;;;;;;52.70;18.85;;;;;;;;;;6188336;23;20039;-80
2023/05/22 04:37:30;;;;;;;41.92;19.80;;;;;;;;;;6212954;23;20002;-79
2023/05/22 04:40:16;;;;;;;36.72;17.00;;;;;;;;;;6212876;23;20004;-85
2023/05/22 04:42:44;;;;;;;35.05;17.38;;;;;;;;;;6215925;23;20007;-87
2023/05/22 04:45:12;;;;;;;32.75;16.58;;;;;;;;;;6188926;23;20501;-88
2023/05/22 04:47:40;;;;;;;49.42;19.83;;;;;;;;;;6188557;23;20027;-86
2023/05/22 04:50:06;;;;;;;41.10;18.02;;;;;;;;;;6211309;23;20360;-87
2023/05/22 04:52:52;;;;;;;40.13;17.50;;;;;;;;;;6212217;23;20009;-88
2023/05/22 04:55:17;;;;;;;43.15;16.58;;;;;;;;;;6214135;23;20000;-86
2023/05/22 04:57:43;;;;;;;42.00;16.42;;;;;;;;;;6213670;23;20075;-87
2023/05/22 05:00:11;;;;;;;34.35;16.15;;;;;;;;;;6213117;23;20027;-87
2023/05/22 05:02:36;;;;;;;30.27;14.70;;;;;;;;;;6189686;23;20039;-87
2023/05/22 05:05:38;;;;;;;32.50;14.70;;;;;;;;;;6185843;23;20017;-84
2023/05/22 05:08:14;;;;;;;;;;;;;;;;;;;;;
2023/05/22 05:10:42;;;;;;;31.85;14.50;;;;;;;;;;6190739;23;20023;-86
2023/05/22 05:13:29;;;;;;;29.60;14.25;;;;;;;;;;6185776;23;20005;-85
2023/05/22 05:15:56;;;;;;;30.35;14.32;;;;;;;;;;6166432;23;20051;-85
2023/05/22 05:18:52;;;;;;;29.70;14.15;;;;;;;;;;6186586;23;20005;-86
2023/05/22 05:22:14;;;;;;;31.55;13.40;;;;;;;;;;6191525;23;20001;-86
2023/05/22 05:29:17;;;;;;;33.72;14.43;;;;;;;;;;6136770;23;20014;-86
2023/05/22 05:31:58;;;;;;;28.23;13.52;;;;;;;;;;6182595;23;20021;-87
2023/05/22 05:34:27;;;;;;;31.25;13.90;;;;;;;;;;6197534;23;20115;-86
2023/05/22 05:39:55;;;;;;;31.25;14.60;;;;;;;;;;6098293;23;20398;-87
2023/05/22 05:42:20;;;;;;;28.17;13.88;;;;;;;;;;6181477;23;20009;-85
2023/05/22 05:50:29;;;;;;;34.75;14.15;;;;;;;;;;6211708;23;20017;-85
2023/05/22 05:52:57;;;;;;;29.08;13.85;;;;;;;;;;6184255;23;20011;-85
2023/05/22 05:55:23;;;;;;;31.30;14.38;;;;;;;;;;6207822;23;20451;-86
2023/05/22 05:57:48;;;;;;;31.48;13.95;;;;;;;;;;6207637;23;20008;-86
2023/05/22 06:00:14;;;;;;;33.72;14.10;;;;;;;;;;6209421;23;20597;-85
2023/05/22 06:02:42;;;;;;;29.70;14.32;;;;;;;;;;6207587;23;20490;-85
2023/05/22 06:05:18;;;;;;;28.17;13.80;;;;;;;;;;6158209;23;20001;-85
2023/05/22 06:07:44;;;;;;;30.30;14.15;;;;;;;;;;6211295;23;20032;-85
2023/05/22 06:10:21;;;;;;;30.23;13.98;;;;;;;;;;6209864;23;20317;-84
2023/05/22 06:12:46;;;;;;;39.40;15.55;;;;;;;;;;6210200;23;20016;-84
2023/05/22 06:15:18;;;;;;;28.48;15.13;;;;;;;;;;6210545;23;20328;-85
2023/05/22 06:17:55;;;;;;;34.92;15.45;;;;;;;;;;6185028;23;20086;-85
2023/05/22 06:20:21;;;;;;;24.30;13.32;;;;;;;;;;6186830;23;19997;-85
2023/05/22 06:22:46;;;;;;;24.70;13.80;;;;;;;;;;6210761;23;20359;-86
2023/05/22 06:25:12;;;;;;;29.70;15.13;;;;;;;;;;6210231;23;20417;-84
2023/05/22 06:28:11;;;;;;;;;;;;;;;;;;;;;
2023/05/22 06:34:52;;;;;;;26.45;13.55;;;;;;;;;;6087273;23;20093;-85
2023/05/22 06:37:18;;;;;;;32.22;13.02;;;;;;;;;;6091307;23;20398;-85
2023/05/22 06:39:43;;;;;;;24.70;13.27;;;;;;;;;;6212871;23;20005;-85
2023/05/22 06:42:09;;;;;;;25.15;13.70;;;;;;;;;;6162241;23;20030;-86
2023/05/22 06:44:34;;;;;;;25.08;12.20;;;;;;;;;;6213227;23;20011;-84
2023/05/22 06:47:00;;;;;;;25.10;12.23;;;;;;;;;;6187415;23;20003;-85
2023/05/22 06:49:25;;;;;;;21.70;12.52;;;;;;;;;;6213370;23;20008;-86
2023/05/22 06:51:51;;;;;;;24.98;12.45;;;;;;;;;;6213734;23;20001;-85
2023/05/22 06:54:18;;;;;;;28.10;11.93;;;;;;;;;;6212858;23;20043;-87
2023/05/22 06:56:44;;;;;;;30.05;12.13;;;;;;;;;;6212652;23;20376;-85
2023/05/22 06:59:10;;;;;;;24.70;12.48;;;;;;;;;;6162641;23;20009;-85
2023/05/22 07:01:36;;;;;;;24.65;13.20;;;;;;;;;;6187610;23;20019;-85
2023/05/22 07:04:03;;;;;;;27.42;12.73;;;;;;;;;;6212105;23;20356;-86
2023/05/22 07:06:32;;;;;;;23.13;11.95;;;;;;;;;;6213964;23;19996;-85
2023/05/22 07:08:58;;;;;;;32.03;12.23;;;;;;;;;;6214286;23;20438;-86
2023/05/22 07:11:23;;;;;;;24.45;12.45;;;;;;;;;;6186988;23;20005;-79
2023/05/22 07:13:51;;;;;;;28.50;11.30;;;;;;;;;;6212966;23;20005;-87
2023/05/22 07:19:23;;;;;;;22.25;11.65;;;;;;;;;;6217626;23;20117;-86
2023/05/22 07:21:49;;;;;;;22.90;10.70;;;;;;;;;;6173605;23;20071;-83
2023/05/22 07:24:14;;;;;;;17.13;9.85;;;;;;;;;;6213182;23;20004;-81
2023/05/22 07:26:45;;;;;;;24.48;10.27;;;;;;;;;;6187267;23;20051;-80
2023/05/22 07:29:10;;;;;;;24.58;10.75;;;;;;;;;;6213790;23;20031;-82
2023/05/22 07:31:37;;;;;;;15.85;9.85;;;;;;;;;;6161435;23;20008;-81
2023/05/22 07:34:03;;;;;;;18.27;10.07;;;;;;;;;;6213089;23;20004;-82
2023/05/22 07:36:28;;;;;;;20.35;9.82;;;;;;;;;;6161712;23;20008;-83
2023/05/22 07:38:54;;;;;;;19.90;10.52;;;;;;;;;;6162382;23;20075;-83
2023/05/22 07:41:21;;;;;;;16.25;9.07;;;;;;;;;;6215788;23;20000;-85
2023/05/22 07:43:46;;;;;;;14.05;8.75;;;;;;;;;;6216287;23;20017;-83
2023/05/22 07:46:12;;;;;;;17.73;9.82;;;;;;;;;;6223112;23;20024;-83
2023/05/22 07:48:37;;;;;;;20.65;10.07;;;;;;;;;;6227874;23;20005;-83
2023/05/22 07:51:03;;;;;;;17.80;10.00;;;;;;;;;;6204520;23;20079;-83
2023/05/22 07:53:28;;;;;;;17.45;9.52;;;;;;;;;;6231141;23;20020;-84
2023/05/22 07:55:56;;;;;;;20.60;10.80;;;;;;;;;;6206022;23;20351;-85
2023/05/22 07:58:23;;;;;;;15.30;9.23;;;;;;;;;;6206582;23;20001;-84
2023/05/22 08:00:48;;;;;;;14.07;8.63;;;;;;;;;;6200403;23;20027;-84
2023/05/22 08:03:14;;;;;;;18.52;9.32;;;;;;;;;;6199565;23;20004;-83
2023/05/22 08:05:39;;;;;;;18.08;9.05;;;;;;;;;;6195729;23;20004;-82
2023/05/22 08:08:04;;;;;;;17.00;8.93;;;;;;;;;;6219159;23;20317;-83
2023/05/22 08:10:30;;;;;;;15.52;8.10;;;;;;;;;;6193652;23;20027;-84
2023/05/22 08:12:57;;;;;;;13.48;8.38;;;;;;;;;;6194499;23;19996;-82
2023/05/22 08:15:24;;;;;;;12.75;8.43;;;;;;;;;;6219646;23;20034;-83
2023/05/22 08:17:50;;;;;;;14.45;8.90;;;;;;;;;;6219111;23;20001;-83
2023/05/22 08:20:16;;;;;;;12.55;7.90;;;;;;;;;;6198397;23;20461;-80
2023/05/22 08:22:41;;;;;;;13.95;7.93;;;;;;;;;;6188898;23;20019;-80
2023/05/22 08:25:07;;;;;;;9.55;6.53;;;;;;;;;;6228546;23;19993;-84
2023/05/22 08:27:32;;;;;;;8.13;5.90;;;;;;;;;;6214110;23;20049;-85
2023/05/22 08:29:58;;;;;;;13.25;8.23;;;;;;;;;;6233734;23;20005;-84
2023/05/22 08:32:25;;;;;;;13.50;7.32;;;;;;;;;;6196035;23;20003;-83
2023/05/22 08:34:51;;;;;;;15.10;7.90;;;;;;;;;;6217441;23;20028;-83
2023/05/22 08:37:16;;;;;;;11.60;6.15;;;;;;;;;;6190639;23;20000;-83
2023/05/22 08:39:42;;;;;;;10.25;5.57;;;;;;;;;;6220367;23;20340;-83
2023/05/22 08:42:07;;;;;;;13.88;5.65;;;;;;;;;;6216260;23;20001;-83
2023/05/22 08:44:33;;;;;;;19.52;13.38;;;;;;;;;;6188651;23;20087;-84
2023/05/22 08:47:00;;;;;;;17.00;9.25;;;;;;;;;;6215988;23;20000;-84
2023/05/22 08:49:25;;;;;;;14.68;6.38;;;;;;;;;;6216005;23;20008;-84
2023/05/22 08:51:53;;;;;;;12.25;8.02;;;;;;;;;;6163512;23;20011;-83
2023/05/22 08:54:18;;;;;;;15.40;9.73;;;;;;;;;;6163715;23;20046;-84
2023/05/22 08:56:44;;;;;;;12.30;6.32;;;;;;;;;;6163535;23;20005;-84
2023/05/22 08:59:09;;;;;;;6.70;4.60;;;;;;;;;;6138471;23;20052;-84
2023/05/22 09:01:35;;;;;;;8.52;5.65;;;;;;;;;;6187860;23;20036;-84
2023/05/22 09:04:01;;;;;;;6.60;4.97;;;;;;;;;;6214756;23;20005;-83
2023/05/22 09:06:28;;;;;;;10.15;5.32;;;;;;;;;;6214410;23;20024;-83
2023/05/22 09:08:56;;;;;;;7.95;5.20;;;;;;;;;;6214260;23;20011;-84
2023/05/22 09:11:22;;;;;;;9.80;5.10;;;;;;;;;;6188237;23;20482;-84
2023/05/22 09:13:48;;;;;;;6.63;5.03;;;;;;;;;;6187535;23;20247;-84
2023/05/22 09:16:14;;;;;;;16.80;9.32;;;;;;;;;;6214389;23;20001;-83
2023/05/22 09:18:41;;;;;;;9.35;5.80;;;;;;;;;;6162963;23;20016;-83
2023/05/22 09:21:06;;;;;;;9.55;6.57;;;;;;;;;;6163143;23;20478;-84
2023/05/22 09:23:32;;;;;;;11.55;5.35;;;;;;;;;;6187549;23;20004;-85
2023/05/22 09:25:58;;;;;;;9.38;5.40;;;;;;;;;;6214566;23;20027;-84
2023/05/22 09:28:24;;;;;;;10.18;5.70;;;;;;;;;;6187448;23;20390;-84
2023/05/22 09:30:50;;;;;;;6.97;4.85;;;;;;;;;;6138500;23;20023;-84
2023/05/22 09:33:16;;;;;;;7.68;5.15;;;;;;;;;;6188335;23;20004;-84
2023/05/22 09:35:42;;;;;;;9.85;5.15;;;;;;;;;;6188151;23;20403;-85
2023/05/22 09:38:09;;;;;;;11.63;4.97;;;;;;;;;;6188024;23;20001;-85
2023/05/22 09:40:36;;;;;;;6.95;5.18;;;;;;;;;;6188329;23;20011;-83
2023/05/22 09:43:08;;;;;;;7.88;4.90;;;;;;;;;;6214174;23;20087;-83
2023/05/22 09:45:37;;;;;;;11.43;5.43;;;;;;;;;;6188387;23;20005;-84
2023/05/22 09:48:04;;;;;;;8.57;5.63;;;;;;;;;;6213715;23;20490;-84
2023/05/22 09:50:30;;;;;;;7.57;5.57;;;;;;;;;;6187326;23;20103;-82
2023/05/22 09:53:02;;;;;;;10.15;5.65;;;;;;;;;;6187410;23;20071;-84
2023/05/22 09:55:27;;;;;;;13.93;6.10;;;;;;;;;;6162737;23;20007;-84
2023/05/22 09:57:53;;;;;;;8.35;5.95;;;;;;;;;;6186592;23;20004;-84
2023/05/22 10:00:19;;;;;;;8.55;6.00;;;;;;;;;;6214445;23;20024;-84
2023/05/22 10:02:45;;;;;;;8.95;5.18;;;;;;;;;;6162610;23;20028;-82
2023/05/22 10:05:14;;;;;;;10.30;5.47;;;;;;;;;;6187203;23;20502;-82
2023/05/22 10:07:46;;;;;;;8.20;5.20;;;;;;;;;;6213548;23;20011;-83
2023/05/22 10:10:12;;;;;;;15.25;6.93;;;;;;;;;;6186923;23;20004;-84
2023/05/22 10:12:43;;;;;;;12.43;7.50;;;;;;;;;;6161997;23;20015;-84
2023/05/22 10:15:10;;;;;;;23.35;11.63;;;;;;;;;;6187304;23;20393;-85
2023/05/22 10:17:35;;;;;;;12.57;7.05;;;;;;;;;;6186980;23;20009;-84
2023/05/22 10:20:01;;;;;;;7.82;5.60;;;;;;;;;;6213737;23;20008;-84
2023/05/22 10:22:26;;;;;;;8.32;5.20;;;;;;;;;;6187475;23;20407;-84
2023/05/22 10:24:53;;;;;;;7.88;5.43;;;;;;;;;;6161974;23;20011;-84
2023/05/22 10:27:18;;;;;;;9.90;5.50;;;;;;;;;;6187414;23;20005;-84
2023/05/22 10:29:51;;;;;;;6.68;5.15;;;;;;;;;;6213929;23;20027;-83
2023/05/22 10:32:17;;;;;;;7.30;5.07;;;;;;;;;;6187386;23;20348;-83
2023/05/22 10:34:49;;;;;;;9.32;5.05;;;;;;;;;;6213538;23;20083;-83
2023/05/22 10:37:26;;;;;;;9.35;5.20;;;;;;;;;;6187198;23;20007;-83
2023/05/22 10:40:07;;;;;;;8.35;5.10;;;;;;;;;;6214369;23;20019;-84
2023/05/22 10:42:34;;;;;;;6.57;4.88;;;;;;;;;;6215197;23;20032;-84
2023/05/22 10:44:59;;;;;;;6.65;5.35;;;;;;;;;;6187305;23;20013;-85
2023/05/22 10:47:28;;;;;;;6.20;4.97;;;;;;;;;;6163093;23;20011;-84
2023/05/22 10:50:09;;;;;;;8.57;5.13;;;;;;;;;;6186864;23;19992;-85
2023/05/22 10:52:35;;;;;;;8.00;4.95;;;;;;;;;;6213225;23;20005;-84
2023/05/22 10:55:05;;;;;;;9.45;5.30;;;;;;;;;;6161532;23;20374;-84
2023/05/22 10:57:33;;;;;;;7.18;4.88;;;;;;;;;;6187089;23;20004;-84
2023/05/22 11:00:10;;;;;;;6.20;5.03;;;;;;;;;;6162453;23;20007;-86
2023/05/22 11:02:41;;;;;;;8.52;5.03;;;;;;;;;;6213749;23;20015;-85
2023/05/22 11:05:21;;;;;;;10.52;5.43;;;;;;;;;;6187324;23;20005;-85
2023/05/22 11:07:47;;;;;;;9.80;5.50;;;;;;;;;;6214455;23;20329;-84
2023/05/22 11:10:12;;;;;;;10.13;5.57;;;;;;;;;;6186997;23;20000;-83
2023/05/22 11:12:38;;;;;;;9.48;5.30;;;;;;;;;;6137706;23;20009;-84
2023/05/22 11:15:10;;;;;;;8.40;5.35;;;;;;;;;;6213474;23;20076;-85
2023/05/22 11:17:38;;;;;;;8.50;5.15;;;;;;;;;;6187345;23;20013;-85
2023/05/22 11:20:21;;;;;;;9.85;5.30;;;;;;;;;;6213161;23;20011;-83
2023/05/22 11:23:00;;;;;;;7.55;5.20;;;;;;;;;;6186627;23;20371;-84
2023/05/22 11:25:26;;;;;;;10.30;6.10;;;;;;;;;;6187182;23;20539;-82
2023/05/22 11:27:52;;;;;;;8.25;4.57;;;;;;;;;;6161036;23;20000;-82
2023/05/22 11:30:17;;;;;;;10.35;5.55;;;;;;;;;;6213768;23;20012;-82
2023/05/22 11:32:43;;;;;;;8.50;5.38;;;;;;;;;;6188401;23;20005;-82
2023/05/22 11:35:16;;;;;;;9.40;4.95;;;;;;;;;;6164456;23;20344;-83
2023/05/22 11:37:41;;;;;;;8.57;5.30;;;;;;;;;;6187858;23;20032;-85
2023/05/22 11:40:07;;;;;;;7.78;5.38;;;;;;;;;;6187614;23;20533;-86
2023/05/22 11:42:32;;;;;;;9.02;5.38;;;;;;;;;;6188047;23;20008;-85
2023/05/22 11:44:59;;;;;;;8.02;5.53;;;;;;;;;;6187655;23;20008;-85
2023/05/22 11:47:25;;;;;;;9.02;5.88;;;;;;;;;;6188487;23;20036;-82
2023/05/22 11:49:51;;;;;;;11.55;5.22;;;;;;;;;;6163764;23;20416;-84
2023/05/22 11:52:16;;;;;;;11.73;5.47;;;;;;;;;;6138861;23;20012;-83
2023/05/22 11:54:46;;;;;;;9.80;5.60;;;;;;;;;;6164538;23;20001;-85
2023/05/22 11:57:11;;;;;;;9.57;5.82;;;;;;;;;;6164052;23;20472;-84
2023/05/22 11:59:37;;;;;;;8.65;4.93;;;;;;;;;;6164450;23;20012;-84
2023/05/22 12:02:02;;;;;;;14.13;7.38;;;;;;;;;;6162394;23;20000;-86
2023/05/22 12:04:28;;;;;;;12.38;6.50;;;;;;;;;;6162140;23;20035;-84
2023/05/22 12:06:54;;;;;;;8.70;5.72;;;;;;;;;;6213661;23;20494;-85
2023/05/22 12:09:19;;;;;;;9.95;6.15;;;;;;;;;;6161898;23;20026;-85
2023/05/22 12:11:48;;;;;;;7.68;5.22;;;;;;;;;;6161719;23;20005;-85
2023/05/22 12:14:13;;;;;;;9.05;5.40;;;;;;;;;;6162096;23;20472;-88
2023/05/22 12:16:39;;;;;;;9.55;5.28;;;;;;;;;;6188904;23;20011;-87
2023/05/22 12:19:08;;;;;;;8.18;5.15;;;;;;;;;;6214687;23;20071;-85
2023/05/22 12:21:35;;;;;;;11.68;5.60;;;;;;;;;;6214691;23;20436;-86
2023/05/22 12:24:04;;;;;;;8.30;5.10;;;;;;;;;;6163846;23;20060;-82
2023/05/22 12:26:33;;;;;;;8.60;5.47;;;;;;;;;;6188216;23;20074;-83
2023/05/22 12:28:59;;;;;;;11.95;5.50;;;;;;;;;;6189240;23;20004;-83
2023/05/22 12:31:24;;;;;;;11.25;5.72;;;;;;;;;;6138826;23;20015;-82
2023/05/22 12:33:53;;;;;;;9.57;5.90;;;;;;;;;;6189008;23;20028;-81
2023/05/22 12:36:34;;;;;;;9.75;5.07;;;;;;;;;;6188209;23;20074;-83
2023/05/22 12:38:59;;;;;;;15.07;5.70;;;;;;;;;;6166309;23;20043;-84
2023/05/22 12:41:28;;;;;;;7.80;5.13;;;;;;;;;;6138230;23;20004;-84
2023/05/22 12:43:55;;;;;;;10.10;5.78;;;;;;;;;;6144050;23;20107;-84
2023/05/22 12:46:20;;;;;;;8.98;5.53;;;;;;;;;;6197607;23;20035;-83
2023/05/22 12:48:46;;;;;;;9.13;5.90;;;;;;;;;;6221984;23;20012;-85
2023/05/22 12:51:13;;;;;;;9.52;5.25;;;;;;;;;;6216522;23;20000;-83
2023/05/22 12:53:39;;;;;;;8.93;5.47;;;;;;;;;;6190057;23;20101;-84
2023/05/22 12:56:04;;;;;;;8.13;5.53;;;;;;;;;;6213081;23;20448;-85
2023/05/22 12:58:30;;;;;;;9.82;5.32;;;;;;;;;;6161175;23;20000;-85
2023/05/22 13:00:55;;;;;;;10.80;5.03;;;;;;;;;;6213662;23;20055;-85
2023/05/22 13:03:21;;;;;;;7.65;5.25;;;;;;;;;;6136897;23;20403;-85
2023/05/22 13:05:46;;;;;;;10.68;5.20;;;;;;;;;;6161032;23;20005;-79
2023/05/22 13:08:12;;;;;;;10.80;5.65;;;;;;;;;;6213365;23;20020;-79
2023/05/22 13:10:37;;;;;;;8.27;5.00;;;;;;;;;;6214208;23;20087;-77
2023/05/22 13:13:03;;;;;;;10.23;5.57;;;;;;;;;;6214401;23;20028;-79
2023/05/22 13:15:30;;;;;;;8.50;5.57;;;;;;;;;;6214362;23;20080;-80
2023/05/22 13:17:55;;;;;;;12.07;5.30;;;;;;;;;;6187834;23;20004;-78
2023/05/22 13:20:22;;;;;;;9.40;5.50;;;;;;;;;;6187411;23;20352;-80
2023/05/22 13:22:47;;;;;;;9.35;5.63;;;;;;;;;;6214085;23;19997;-79
2023/05/22 13:25:13;;;;;;;9.60;5.20;;;;;;;;;;6187563;23;20075;-79
2023/05/22 13:27:39;;;;;;;9.05;5.50;;;;;;;;;;6214007;23;20390;-79
2023/05/22 13:30:05;;;;;;;9.20;5.32;;;;;;;;;;6214739;23;20001;-78
2023/05/22 13:32:33;;;;;;;7.72;5.30;;;;;;;;;;6214768;23;20004;-79
2023/05/22 13:34:59;;;;;;;7.95;5.40;;;;;;;;;;6214198;23;20008;-78
2023/05/22 13:37:24;;;;;;;8.98;5.63;;;;;;;;;;6162730;23;20005;-78
2023/05/22 13:39:50;;;;;;;9.70;5.53;;;;;;;;;;6213992;23;20054;-78
2023/05/22 13:42:15;;;;;;;7.40;5.38;;;;;;;;;;6214227;23;20011;-79
2023/05/22 13:44:40;;;;;;;9.75;5.60;;;;;;;;;;6187132;23;20505;-79
2023/05/22 13:47:06;;;;;;;8.98;5.55;;;;;;;;;;6214140;23;20001;-79
2023/05/22 13:49:31;;;;;;;11.63;5.32;;;;;;;;;;6162409;23;20079;-78
2023/05/22 13:51:57;;;;;;;11.88;4.97;;;;;;;;;;6187554;23;20102;-78
2023/05/22 13:54:22;;;;;;;7.03;5.10;;;;;;;;;;6187204;23;20004;-79
2023/05/22 13:56:48;;;;;;;8.80;5.57;;;;;;;;;;6213756;23;20003;-79
2023/05/22 13:59:13;;;;;;;6.47;5.13;;;;;;;;;;6213708;23;20015;-78
2023/05/22 14:01:39;;;;;;;10.15;5.55;;;;;;;;;;6162744;23;20000;-79
2023/05/22 14:04:04;;;;;;;12.93;6.00;;;;;;;;;;6162016;23;20055;-79
2023/05/22 14:06:29;;;;;;;8.55;5.60;;;;;;;;;;6162477;23;20050;-79
2023/05/22 14:08:55;;;;;;;8.43;5.60;;;;;;;;;;6187424;23;20134;-78
2023/05/22 14:11:21;;;;;;;8.57;5.40;;;;;;;;;;6187499;23;20070;-78
2023/05/22 14:13:47;;;;;;;11.32;5.80;;;;;;;;;;6214209;23;20004;-78
2023/05/22 14:16:12;;;;;;;8.85;5.55;;;;;;;;;;6162285;23;20012;-79
2023/05/22 14:18:38;;;;;;;8.63;4.97;;;;;;;;;;6137521;23;20005;-79
2023/05/22 14:21:03;;;;;;;10.50;5.57;;;;;;;;;;6162278;23;20012;-79
2023/05/22 14:23:29;;;;;;;12.07;5.65;;;;;;;;;;6186831;23;20502;-79
2023/05/22 14:25:54;;;;;;;8.35;5.50;;;;;;;;;;6187245;23;20034;-79
2023/05/22 14:28:20;;;;;;;11.40;5.65;;;;;;;;;;6187163;23;20001;-78
2023/05/22 14:30:45;;;;;;;8.32;5.50;;;;;;;;;;6187169;23;20008;-79
2023/05/22 14:33:11;;;;;;;15.38;6.28;;;;;;;;;;6186913;23;20004;-80
2023/05/22 14:35:36;;;;;;;7.93;5.40;;;;;;;;;;6186932;23;20087;-80
2023/05/22 14:38:02;;;;;;;11.07;5.47;;;;;;;;;;6213442;23;20004;-79
2023/05/22 14:40:27;;;;;;;9.18;5.95;;;;;;;;;;6213724;23;20058;-80
2023/05/22 14:42:52;;;;;;;12.00;6.20;;;;;;;;;;6213460;23;19996;-79
2023/05/22 14:45:18;;;;;;;11.55;5.68;;;;;;;;;;6162274;23;20118;-79
2023/05/22 14:47:43;;;;;;;12.13;6.05;;;;;;;;;;6213092;23;20001;-80
2023/05/22 14:50:10;;;;;;;9.68;5.85;;;;;;;;;;6213502;23;20004;-79
2023/05/22 14:52:35;;;;;;;7.43;5.22;;;;;;;;;;6162436;23;20000;-80